Esteban Echeverria, Argentina
Current Conditions -  °F | °C
As of 6:00 PM on Monday 24 Nov 2014 (Local Time) from SAEZ Reporting Station
Broken Clouds Broken Clouds  
Wind Chill: 23°   Ceiling: 10000
Heat Index: 23°   Visibility: 6mi
Dew Point: 18°   Wind: 7mph
Humidity: 73%   Direction: 230°SW
Pressure: 29.8"   Gusts: NA
Location:  34.83°S, 58.47°W
Report Text: SAEZ 242100Z 23006KT 160V250 9999 FEW020 BKN100 23/18 Q1009
Loading
Personal Weather Stations






























Interactive Weather Map New forecast layout! Learn more

10-Day Weather Forecast

Advertisements
Track Severe Weather on mobile